sensor_id;sensor_type;location;lat;lon;timestamp;pressure;altitude;pressure_sealevel;temperature;humidity
21828;BME280;11076;47.942;11.804;2022-11-15T00:02:39;94305.00;;;1.73;100.00
21828;BME280;11076;47.942;11.804;2022-11-15T00:08:00;94304.34;;;1.63;100.00
21828;BME280;11076;47.942;11.804;2022-11-15T00:13:21;94299.41;;;1.60;100.00
21828;BME280;11076;47.942;11.804;2022-11-15T00:18:42;94291.50;;;1.52;100.00
21828;BME280;11076;47.942;11.804;2022-11-15T00:24:06;94292.34;;;1.52;100.00
21828;BME280;11076;47.942;11.804;2022-11-15T00:29:26;94284.59;;;1.67;100.00
21828;BME280;11076;47.942;11.804;2022-11-15T00:34:47;94275.19;;;1.81;100.00
21828;BME280;11076;47.942;11.804;2022-11-15T00:40:09;94279.44;;;1.82;100.00
21828;BME280;11076;47.942;11.804;2022-11-15T00:45:29;94273.38;;;1.73;100.00
21828;BME280;11076;47.942;11.804;2022-11-15T00:50:50;94281.78;;;1.61;100.00
21828;BME280;11076;47.942;11.804;2022-11-15T00:56:11;94280.94;;;1.68;100.00
21828;BME280;11076;47.942;11.804;2022-11-15T01:01:32;94271.75;;;1.48;100.00
21828;BME280;11076;47.942;11.804;2022-11-15T01:06:53;94265.47;;;1.49;100.00
21828;BME280;11076;47.942;11.804;2022-11-15T01:12:14;94274.72;;;1.45;100.00
21828;BME280;11076;47.942;11.804;2022-11-15T01:17:35;94258.91;;;1.45;100.00
21828;BME280;11076;47.942;11.804;2022-11-15T01:22:56;94260.88;;;1.43;100.00
21828;BME280;11076;47.942;11.804;2022-11-15T01:28:17;94252.16;;;1.34;100.00
21828;BME280;11076;47.942;11.804;2022-11-15T01:33:38;94244.94;;;1.36;100.00
21828;BME280;11076;47.942;11.804;2022-11-15T01:38:59;94237.53;;;1.31;100.00
21828;BME280;11076;47.942;11.804;2022-11-15T01:50:10;94217.75;;;1.44;100.00
21828;BME280;11076;47.942;11.804;2022-11-15T01:55:32;94215.09;;;1.60;100.00
21828;BME280;11076;47.942;11.804;2022-11-15T02:00:53;94201.88;;;1.68;100.00
21828;BME280;11076;47.942;11.804;2022-11-15T02:06:14;94200.56;;;1.64;100.00
21828;BME280;11076;47.942;11.804;2022-11-15T02:11:35;94192.03;;;1.62;100.00
21828;BME280;11076;47.942;11.804;2022-11-15T02:22:47;94182.44;;;1.61;100.00
21828;BME280;11076;47.942;11.804;2022-11-15T02:39:55;94161.75;;;1.50;100.00
21828;BME280;11076;47.942;11.804;2022-11-15T02:45:22;94154.84;;;1.41;100.00
21828;BME280;11076;47.942;11.804;2022-11-15T02:50:45;94143.34;;;1.25;100.00
21828;BME280;11076;47.942;11.804;2022-11-15T02:56:09;94138.09;;;1.25;100.00
21828;BME280;11076;47.942;11.804;2022-11-15T03:13:58;94136.13;;;1.19;100.00
21828;BME280;11076;47.942;11.804;2022-11-15T03:19:30;94133.97;;;1.23;100.00
21828;BME280;11076;47.942;11.804;2022-11-15T03:24:54;94141.56;;;1.17;100.00
21828;BME280;11076;47.942;11.804;2022-11-15T03:30:18;94134.16;;;1.13;100.00
21828;BME280;11076;47.942;11.804;2022-11-15T03:35:41;94137.59;;;1.13;100.00
21828;BME280;11076;47.942;11.804;2022-11-15T03:41:06;94126.25;;;1.13;100.00
21828;BME280;11076;47.942;11.804;2022-11-15T03:46:40;94128.59;;;1.08;100.00
21828;BME280;11076;47.942;11.804;2022-11-15T03:52:04;94121.00;;;1.05;100.00
21828;BME280;11076;47.942;11.804;2022-11-15T03:57:26;94118.19;;;1.23;100.00
21828;BME280;11076;47.942;11.804;2022-11-15T04:02:47;94106.19;;;1.20;100.00
21828;BME280;11076;47.942;11.804;2022-11-15T04:08:08;94109.44;;;1.30;100.00
21828;BME280;11076;47.942;11.804;2022-11-15T04:13:29;94100.25;;;1.26;100.00
21828;BME280;11076;47.942;11.804;2022-11-15T04:18:50;94093.63;;;1.30;100.00
21828;BME280;11076;47.942;11.804;2022-11-15T04:24:30;94093.63;;;1.30;100.00
21828;BME280;11076;47.942;11.804;2022-11-15T04:29:51;94087.78;;;1.04;100.00
21828;BME280;11076;47.942;11.804;2022-11-15T04:35:12;94075.28;;;0.89;100.00
21828;BME280;11076;47.942;11.804;2022-11-15T04:40:34;94072.00;;;0.87;100.00
21828;BME280;11076;47.942;11.804;2022-11-15T04:45:55;94069.03;;;0.98;100.00
21828;BME280;11076;47.942;11.804;2022-11-15T04:51:16;94066.59;;;0.89;100.00
21828;BME280;11076;47.942;11.804;2022-11-15T04:56:37;94062.47;;;0.94;100.00
21828;BME280;11076;47.942;11.804;2022-11-15T05:01:58;94061.16;;;0.90;100.00
21828;BME280;11076;47.942;11.804;2022-11-15T05:07:19;94054.59;;;0.78;100.00
21828;BME280;11076;47.942;11.804;2022-11-15T05:12:40;94055.09;;;0.73;100.00
21828;BME280;11076;47.942;11.804;2022-11-15T05:18:00;94058.41;;;0.59;100.00
21828;BME280;11076;47.942;11.804;2022-11-15T05:23:21;94050.66;;;0.49;100.00
21828;BME280;11076;47.942;11.804;2022-11-15T05:28:42;94044.75;;;0.47;100.00
21828;BME280;11076;47.942;11.804;2022-11-15T05:34:04;94047.38;;;0.55;100.00
21828;BME280;11076;47.942;11.804;2022-11-15T05:39:25;94049.69;;;0.58;100.00
21828;BME280;11076;47.942;11.804;2022-11-15T05:44:48;94056.94;;;0.48;100.00
21828;BME280;11076;47.942;11.804;2022-11-15T05:50:12;94050.69;;;0.41;100.00
21828;BME280;11076;47.942;11.804;2022-11-15T05:55:35;94044.59;;;0.41;100.00
21828;BME280;11076;47.942;11.804;2022-11-15T06:00:57;94035.22;;;0.54;100.00
21828;BME280;11076;47.942;11.804;2022-11-15T06:06:18;94020.09;;;0.65;100.00
21828;BME280;11076;47.942;11.804;2022-11-15T06:11:39;94027.97;;;0.73;100.00
21828;BME280;11076;47.942;11.804;2022-11-15T06:17:00;94026.66;;;0.61;100.00
21828;BME280;11076;47.942;11.804;2022-11-15T06:22:24;94027.19;;;0.56;100.00
21828;BME280;11076;47.942;11.804;2022-11-15T06:27:51;94019.09;;;0.57;100.00
21828;BME280;11076;47.942;11.804;2022-11-15T06:33:12;94020.09;;;0.65;100.00
21828;BME280;11076;47.942;11.804;2022-11-15T06:38:34;94021.75;;;0.66;100.00
21828;BME280;11076;47.942;11.804;2022-11-15T06:43:56;94024.00;;;0.77;100.00
21828;BME280;11076;47.942;11.804;2022-11-15T06:49:17;94023.31;;;0.99;100.00
21828;BME280;11076;47.942;11.804;2022-11-15T06:54:38;94022.91;;;1.11;100.00
21828;BME280;11076;47.942;11.804;2022-11-15T06:59:59;94025.56;;;1.11;100.00
21828;BME280;11076;47.942;11.804;2022-11-15T07:05:20;94020.56;;;1.24;100.00
21828;BME280;11076;47.942;11.804;2022-11-15T07:10:41;94021.53;;;1.31;100.00
21828;BME280;11076;47.942;11.804;2022-11-15T07:16:07;94023.09;;;1.49;100.00
21828;BME280;11076;47.942;11.804;2022-11-15T07:21:28;94012.94;;;1.69;100.00
21828;BME280;11076;47.942;11.804;2022-11-15T07:26:49;94017.66;;;1.82;100.00
21828;BME280;11076;47.942;11.804;2022-11-15T07:32:10;94023.25;;;2.10;100.00
21828;BME280;11076;47.942;11.804;2022-11-15T07:37:31;94011.34;;;2.37;100.00
21828;BME280;11076;47.942;11.804;2022-11-15T07:42:52;94010.81;;;2.56;100.00
21828;BME280;11076;47.942;11.804;2022-11-15T07:48:16;94009.78;;;2.81;100.00
21828;BME280;11076;47.942;11.804;2022-11-15T07:53:37;94008.72;;;3.05;100.00
21828;BME280;11076;47.942;11.804;2022-11-15T07:58:58;94011.50;;;3.33;100.00
21828;BME280;11076;47.942;11.804;2022-11-15T08:04:19;94007.69;;;3.50;100.00
21828;BME280;11076;47.942;11.804;2022-11-15T08:09:41;93996.69;;;3.68;100.00
21828;BME280;11076;47.942;11.804;2022-11-15T08:15:02;93990.25;;;3.92;100.00
21828;BME280;11076;47.942;11.804;2022-11-15T08:20:24;93983.31;;;4.34;100.00
21828;BME280;11076;47.942;11.804;2022-11-15T08:25:45;93970.84;;;4.78;100.00
21828;BME280;11076;47.942;11.804;2022-11-15T08:31:06;93969.41;;;5.17;100.00
21828;BME280;11076;47.942;11.804;2022-11-15T08:36:27;93955.94;;;5.53;100.00
21828;BME280;11076;47.942;11.804;2022-11-15T08:41:52;93926.72;;;6.08;100.00
21828;BME280;11076;47.942;11.804;2022-11-15T08:47:13;93914.91;;;6.31;100.00
21828;BME280;11076;47.942;11.804;2022-11-15T08:52:36;93922.66;;;6.39;100.00
21828;BME280;11076;47.942;11.804;2022-11-15T08:57:57;93924.28;;;6.53;100.00
21828;BME280;11076;47.942;11.804;2022-11-15T09:03:18;93915.28;;;6.81;100.00
21828;BME280;11076;47.942;11.804;2022-11-15T09:08:40;93923.44;;;6.86;100.00
21828;BME280;11076;47.942;11.804;2022-11-15T09:14:11;93925.91;;;6.81;100.00
21828;BME280;11076;47.942;11.804;2022-11-15T09:19:32;93930.59;;;6.92;100.00
21828;BME280;11076;47.942;11.804;2022-11-15T09:24:53;93929.09;;;7.10;100.00
21828;BME280;11076;47.942;11.804;2022-11-15T09:30:14;93923.34;;;7.26;96.51
21828;BME280;11076;47.942;11.804;2022-11-15T09:35:35;93922.88;;;7.43;98.14
21828;BME280;11076;47.942;11.804;2022-11-15T09:52:34;93897.81;;;8.02;91.44
21828;BME280;11076;47.942;11.804;2022-11-15T09:57:41;93889.28;;;8.19;90.38
21828;BME280;11076;47.942;11.804;2022-11-15T10:13:34;93862.16;;;8.79;81.22
21828;BME280;11076;47.942;11.804;2022-11-15T10:23:58;93859.59;;;8.90;78.00
21828;BME280;11076;47.942;11.804;2022-11-15T10:29:00;93849.91;;;8.96;76.46
21828;BME280;11076;47.942;11.804;2022-11-15T10:34:13;93835.16;;;9.12;76.02
21828;BME280;11076;47.942;11.804;2022-11-15T10:39:16;93820.19;;;9.29;75.60
21828;BME280;11076;47.942;11.804;2022-11-15T10:44:26;93801.91;;;9.45;76.31
21828;BME280;11076;47.942;11.804;2022-11-15T10:49:32;93792.38;;;9.67;76.42
21828;BME280;11076;47.942;11.804;2022-11-15T10:59:46;93794.06;;;9.92;72.21
21828;BME280;11076;47.942;11.804;2022-11-15T11:04:50;93782.09;;;10.06;72.39
21828;BME280;11076;47.942;11.804;2022-11-15T11:10:00;93776.13;;;10.23;71.17
21828;BME280;11076;47.942;11.804;2022-11-15T11:15:11;93763.13;;;10.38;69.61
21828;BME280;11076;47.942;11.804;2022-11-15T11:20:58;93762.09;;;10.51;69.26
21828;BME280;11076;47.942;11.804;2022-11-15T11:47:24;93718.16;;;10.99;69.08
21828;BME280;11076;47.942;11.804;2022-11-15T11:52:39;93723.59;;;11.16;68.06
21828;BME280;11076;47.942;11.804;2022-11-15T12:13:29;93691.44;;;11.45;64.59
21828;BME280;11076;47.942;11.804;2022-11-15T12:18:37;93688.38;;;11.53;64.66
21828;BME280;11076;47.942;11.804;2022-11-15T12:23:48;93686.94;;;11.62;64.43
21828;BME280;11076;47.942;11.804;2022-11-15T12:29:01;93673.16;;;11.70;64.84
21828;BME280;11076;47.942;11.804;2022-11-15T12:45:25;93668.34;;;11.72;62.82
21828;BME280;11076;47.942;11.804;2022-11-15T13:06:49;93657.56;;;11.84;64.41
21828;BME280;11076;47.942;11.804;2022-11-15T13:11:52;93654.56;;;11.81;64.33
21828;BME280;11076;47.942;11.804;2022-11-15T13:16:58;93648.47;;;11.85;64.88
21828;BME280;11076;47.942;11.804;2022-11-15T13:22:04;93642.47;;;11.95;65.32
21828;BME280;11076;47.942;11.804;2022-11-15T13:27:25;93639.25;;;11.93;65.25
21828;BME280;11076;47.942;11.804;2022-11-15T13:32:27;93633.66;;;11.94;65.66
21828;BME280;11076;47.942;11.804;2022-11-15T13:37:30;93626.91;;;11.92;66.29
21828;BME280;11076;47.942;11.804;2022-11-15T13:42:33;93630.47;;;11.81;66.40
21828;BME280;11076;47.942;11.804;2022-11-15T13:47:36;93626.25;;;11.68;67.12
21828;BME280;11076;47.942;11.804;2022-11-15T13:52:40;93619.59;;;11.70;67.81
21828;BME280;11076;47.942;11.804;2022-11-15T13:57:48;93619.50;;;11.65;68.00
21828;BME280;11076;47.942;11.804;2022-11-15T14:02:54;93629.50;;;11.53;68.55
21828;BME280;11076;47.942;11.804;2022-11-15T14:13:28;93618.75;;;11.19;70.36
21828;BME280;11076;47.942;11.804;2022-11-15T14:18:49;93606.66;;;10.71;71.46
21828;BME280;11076;47.942;11.804;2022-11-15T14:23:52;93614.41;;;10.44;73.12
21828;BME280;11076;47.942;11.804;2022-11-15T14:28:54;93612.25;;;10.17;73.81
21828;BME280;11076;47.942;11.804;2022-11-15T14:33:57;93622.94;;;9.82;75.81
21828;BME280;11076;47.942;11.804;2022-11-15T14:38:59;93619.09;;;9.54;77.31
21828;BME280;11076;47.942;11.804;2022-11-15T14:44:01;93610.50;;;9.28;78.44
21828;BME280;11076;47.942;11.804;2022-11-15T14:49:04;93621.09;;;9.05;80.45
21828;BME280;11076;47.942;11.804;2022-11-15T14:54:09;93618.94;;;8.83;81.17
21828;BME280;11076;47.942;11.804;2022-11-15T14:59:12;93619.69;;;8.60;82.01
21828;BME280;11076;47.942;11.804;2022-11-15T15:04:14;93621.94;;;8.45;84.07
21828;BME280;11076;47.942;11.804;2022-11-15T15:09:17;93627.84;;;8.28;84.63
21828;BME280;11076;47.942;11.804;2022-11-15T15:14:19;93617.41;;;8.08;85.94
21828;BME280;11076;47.942;11.804;2022-11-15T15:19:21;93626.13;;;7.97;88.16
21828;BME280;11076;47.942;11.804;2022-11-15T15:24:26;93635.72;;;7.80;88.59
21828;BME280;11076;47.942;11.804;2022-11-15T15:29:28;93625.56;;;7.70;89.62
21828;BME280;11076;47.942;11.804;2022-11-15T15:34:31;93624.34;;;7.72;90.56
21828;BME280;11076;47.942;11.804;2022-11-15T15:39:34;93618.84;;;7.67;90.94
21828;BME280;11076;47.942;11.804;2022-11-15T15:44:36;93611.44;;;7.51;91.02
21828;BME280;11076;47.942;11.804;2022-11-15T15:49:38;93626.38;;;7.27;91.68
21828;BME280;11076;47.942;11.804;2022-11-15T15:54:41;93621.22;;;7.07;92.81
21828;BME280;11076;47.942;11.804;2022-11-15T15:59:44;93626.66;;;6.87;93.78
21828;BME280;11076;47.942;11.804;2022-11-15T16:04:46;93616.16;;;6.67;93.86
21828;BME280;11076;47.942;11.804;2022-11-15T16:09:49;93613.16;;;6.56;94.75
21828;BME280;11076;47.942;11.804;2022-11-15T16:15:04;93615.84;;;6.50;95.31
21828;BME280;11076;47.942;11.804;2022-11-15T16:20:20;93611.84;;;6.34;95.20
21828;BME280;11076;47.942;11.804;2022-11-15T16:25:24;93600.91;;;6.17;95.56
21828;BME280;11076;47.942;11.804;2022-11-15T16:30:27;93599.53;;;6.01;96.33
21828;BME280;11076;47.942;11.804;2022-11-15T16:35:29;93594.03;;;5.96;97.69
21828;BME280;11076;47.942;11.804;2022-11-15T16:40:33;93601.34;;;6.07;100.00
21828;BME280;11076;47.942;11.804;2022-11-15T16:45:37;93599.84;;;6.25;98.73
21828;BME280;11076;47.942;11.804;2022-11-15T16:50:39;93590.50;;;6.15;99.51
21828;BME280;11076;47.942;11.804;2022-11-15T16:55:42;93595.97;;;6.21;99.77
21828;BME280;11076;47.942;11.804;2022-11-15T17:00:44;93586.97;;;6.22;99.74
21828;BME280;11076;47.942;11.804;2022-11-15T17:05:47;93590.03;;;6.18;99.73
21828;BME280;11076;47.942;11.804;2022-11-15T17:10:49;93582.94;;;6.12;100.00
21828;BME280;11076;47.942;11.804;2022-11-15T17:16:05;93581.72;;;6.15;100.00
21828;BME280;11076;47.942;11.804;2022-11-15T17:21:16;93579.06;;;6.15;99.93
21828;BME280;11076;47.942;11.804;2022-11-15T17:26:20;93570.47;;;6.20;100.00
21828;BME280;11076;47.942;11.804;2022-11-15T17:31:30;93570.66;;;6.18;100.00
21828;BME280;11076;47.942;11.804;2022-11-15T17:36:34;93567.00;;;6.12;100.00
21828;BME280;11076;47.942;11.804;2022-11-15T17:41:37;93561.69;;;6.12;100.00
21828;BME280;11076;47.942;11.804;2022-11-15T17:46:39;93560.50;;;6.08;100.00
21828;BME280;11076;47.942;11.804;2022-11-15T17:51:42;93561.34;;;6.02;100.00
21828;BME280;11076;47.942;11.804;2022-11-15T17:56:47;93551.56;;;5.96;100.00
21828;BME280;11076;47.942;11.804;2022-11-15T18:01:49;93546.47;;;5.88;100.00
21828;BME280;11076;47.942;11.804;2022-11-15T18:06:52;93543.25;;;5.72;100.00
21828;BME280;11076;47.942;11.804;2022-11-15T18:11:54;93535.19;;;5.54;100.00
21828;BME280;11076;47.942;11.804;2022-11-15T18:16:57;93532.09;;;5.57;100.00
21828;BME280;11076;47.942;11.804;2022-11-15T18:21:59;93531.28;;;5.63;100.00
21828;BME280;11076;47.942;11.804;2022-11-15T18:27:04;93523.28;;;5.70;100.00
21828;BME280;11076;47.942;11.804;2022-11-15T18:32:07;93519.00;;;5.69;100.00
21828;BME280;11076;47.942;11.804;2022-11-15T18:37:13;93516.94;;;5.71;100.00
21828;BME280;11076;47.942;11.804;2022-11-15T18:42:16;93516.13;;;5.77;100.00
21828;BME280;11076;47.942;11.804;2022-11-15T18:47:18;93503.84;;;5.83;100.00
21828;BME280;11076;47.942;11.804;2022-11-15T18:52:20;93498.53;;;5.83;100.00
21828;BME280;11076;47.942;11.804;2022-11-15T18:57:23;93499.13;;;5.85;100.00
21828;BME280;11076;47.942;11.804;2022-11-15T19:02:26;93484.88;;;5.86;100.00
21828;BME280;11076;47.942;11.804;2022-11-15T19:07:29;93484.44;;;5.89;100.00
21828;BME280;11076;47.942;11.804;2022-11-15T19:12:31;93475.06;;;5.86;100.00
21828;BME280;11076;47.942;11.804;2022-11-15T19:17:33;93474.44;;;5.91;100.00
21828;BME280;11076;47.942;11.804;2022-11-15T19:22:36;93476.88;;;5.92;100.00
21828;BME280;11076;47.942;11.804;2022-11-15T19:27:38;93474.84;;;5.88;100.00
21828;BME280;11076;47.942;11.804;2022-11-15T19:32:40;93457.34;;;5.80;100.00
21828;BME280;11076;47.942;11.804;2022-11-15T19:37:43;93458.84;;;5.69;100.00
21828;BME280;11076;47.942;11.804;2022-11-15T19:42:45;93462.34;;;5.63;100.00
21828;BME280;11076;47.942;11.804;2022-11-15T19:47:48;93449.78;;;5.45;100.00
21828;BME280;11076;47.942;11.804;2022-11-15T19:52:50;93455.16;;;5.25;100.00
21828;BME280;11076;47.942;11.804;2022-11-15T19:57:52;93441.72;;;5.13;100.00
21828;BME280;11076;47.942;11.804;2022-11-15T20:02:55;93435.59;;;5.20;100.00
21828;BME280;11076;47.942;11.804;2022-11-15T20:07:57;93446.16;;;5.26;100.00
21828;BME280;11076;47.942;11.804;2022-11-15T20:12:59;93447.72;;;5.41;100.00
21828;BME280;11076;47.942;11.804;2022-11-15T20:18:02;93438.28;;;5.58;100.00
21828;BME280;11076;47.942;11.804;2022-11-15T20:23:05;93435.78;;;5.70;100.00
21828;BME280;11076;47.942;11.804;2022-11-15T20:28:18;93439.78;;;5.86;100.00
21828;BME280;11076;47.942;11.804;2022-11-15T20:33:21;93420.56;;;5.97;100.00
21828;BME280;11076;47.942;11.804;2022-11-15T20:38:24;93409.94;;;5.97;100.00
21828;BME280;11076;47.942;11.804;2022-11-15T20:43:26;93402.59;;;5.99;100.00
21828;BME280;11076;47.942;11.804;2022-11-15T20:48:28;93402.00;;;5.97;100.00
21828;BME280;11076;47.942;11.804;2022-11-15T20:53:31;93391.97;;;5.99;100.00
21828;BME280;11076;47.942;11.804;2022-11-15T20:58:35;93389.06;;;6.07;100.00
21828;BME280;11076;47.942;11.804;2022-11-15T21:03:38;93380.72;;;6.04;100.00
21828;BME280;11076;47.942;11.804;2022-11-15T21:08:40;93373.16;;;6.01;100.00
21828;BME280;11076;47.942;11.804;2022-11-15T21:14:01;93359.28;;;6.05;100.00
21828;BME280;11076;47.942;11.804;2022-11-15T21:19:06;93357.00;;;6.09;100.00
21828;BME280;11076;47.942;11.804;2022-11-15T21:24:09;93360.47;;;6.09;100.00
21828;BME280;11076;47.942;11.804;2022-11-15T21:29:11;93355.31;;;6.14;100.00
21828;BME280;11076;47.942;11.804;2022-11-15T21:34:18;93339.97;;;6.16;100.00
21828;BME280;11076;47.942;11.804;2022-11-15T21:39:21;93325.31;;;6.14;100.00
21828;BME280;11076;47.942;11.804;2022-11-15T21:44:23;93322.13;;;6.05;100.00
21828;BME280;11076;47.942;11.804;2022-11-15T21:49:25;93314.03;;;5.93;100.00
21828;BME280;11076;47.942;11.804;2022-11-15T21:54:28;93307.53;;;5.89;100.00
21828;BME280;11076;47.942;11.804;2022-11-15T21:59:30;93287.72;;;5.92;100.00
21828;BME280;11076;47.942;11.804;2022-11-15T22:04:32;93287.50;;;5.93;100.00
21828;BME280;11076;47.942;11.804;2022-11-15T22:09:35;93288.56;;;5.86;100.00
21828;BME280;11076;47.942;11.804;2022-11-15T22:14:37;93275.81;;;5.76;100.00
21828;BME280;11076;47.942;11.804;2022-11-15T22:19:40;93264.06;;;5.65;100.00
21828;BME280;11076;47.942;11.804;2022-11-15T22:24:52;93264.31;;;5.57;100.00
21828;BME280;11076;47.942;11.804;2022-11-15T22:29:55;93247.81;;;5.55;100.00
21828;BME280;11076;47.942;11.804;2022-11-15T22:34:57;93245.75;;;5.82;100.00
21828;BME280;11076;47.942;11.804;2022-11-15T22:40:00;93240.63;;;5.87;100.00
21828;BME280;11076;47.942;11.804;2022-11-15T22:45:02;93234.63;;;5.98;100.00
21828;BME280;11076;47.942;11.804;2022-11-15T22:50:05;93221.16;;;6.18;100.00
21828;BME280;11076;47.942;11.804;2022-11-15T22:55:08;93224.84;;;6.17;100.00
21828;BME280;11076;47.942;11.804;2022-11-15T23:00:13;93221.81;;;6.14;100.00
21828;BME280;11076;47.942;11.804;2022-11-15T23:05:16;93228.97;;;6.13;100.00
21828;BME280;11076;47.942;11.804;2022-11-15T23:10:19;93236.47;;;5.98;100.00
21828;BME280;11076;47.942;11.804;2022-11-15T23:15:40;93235.75;;;5.84;100.00
21828;BME280;11076;47.942;11.804;2022-11-15T23:21:13;93232.66;;;5.62;100.00
21828;BME280;11076;47.942;11.804;2022-11-15T23:26:16;93229.97;;;5.44;100.00
21828;BME280;11076;47.942;11.804;2022-11-15T23:31:19;93210.22;;;5.40;100.00
21828;BME280;11076;47.942;11.804;2022-11-15T23:36:40;93197.72;;;5.47;100.00
21828;BME280;11076;47.942;11.804;2022-11-15T23:41:42;93202.91;;;5.35;100.00
21828;BME280;11076;47.942;11.804;2022-11-15T23:46:45;93193.75;;;5.31;100.00
21828;BME280;11076;47.942;11.804;2022-11-15T23:51:48;93178.94;;;5.48;100.00
21828;BME280;11076;47.942;11.804;2022-11-15T23:56:50;93180.91;;;5.60;100.00
